Time;durP1;ratioP1;P1;durP2;ratioP2;P2;SDS_P1;SDS_P2;PMS_P1;PMS_P2;Temp;Humidity;BMP_temperature;BMP_pressure;BME280_temperature;BME280_humidity;BME280_pressure;Samples;Min_cycle;Max_cycle;Signal;HPM_P1;HPM_P2
2021/03/29 00:01:50;;;;;;;6.82;1.92;;;;;;;;;;4963466;28;20117;-72
2021/03/29 00:04:16;;;;;;;7.32;2.35;;;;;;;;;;4964609;28;20093;-71
2021/03/29 00:06:42;;;;;;;12.93;2.70;;;;;;;;;;4963076;28;20499;-72
2021/03/29 00:09:09;;;;;;;11.95;2.58;;;;;;;;;;4965380;28;20037;-70
2021/03/29 00:11:36;;;;;;;11.82;2.38;;;;;;;;;;4964531;28;20061;-72
2021/03/29 00:14:02;;;;;;;9.85;2.08;;;;;;;;;;4965175;28;20117;-70
2021/03/29 00:16:29;;;;;;;13.20;2.08;;;;;;;;;;4964658;28;20476;-70
2021/03/29 00:18:55;;;;;;;7.60;2.00;;;;;;;;;;4965333;28;20161;-71
2021/03/29 00:21:21;;;;;;;12.80;2.40;;;;;;;;;;4964045;28;20493;-70
2021/03/29 00:23:47;;;;;;;9.80;2.20;;;;;;;;;;4959951;28;20027;-71
2021/03/29 00:26:14;;;;;;;10.35;2.65;;;;;;;;;;4962553;28;20477;-70
2021/03/29 00:28:40;;;;;;;7.78;1.77;;;;;;;;;;4955264;28;20046;-72
2021/03/29 00:31:08;;;;;;;11.30;2.08;;;;;;;;;;4969148;28;20046;-70
2021/03/29 00:33:35;;;;;;;10.80;1.88;;;;;;;;;;4968179;28;20019;-70
2021/03/29 00:36:01;;;;;;;13.95;2.25;;;;;;;;;;4967838;28;20171;-70
2021/03/29 00:38:28;;;;;;;10.15;2.33;;;;;;;;;;4966192;28;20030;-71
2021/03/29 00:40:55;;;;;;;16.10;2.38;;;;;;;;;;4959293;28;20023;-71
2021/03/29 00:43:41;;;;;;;10.73;2.60;;;;;;;;;;4963123;28;20084;-71
2021/03/29 00:46:08;;;;;;;11.30;2.25;;;;;;;;;;4958180;28;20031;-71
2021/03/29 00:48:34;;;;;;;12.20;3.25;;;;;;;;;;4964479;28;20038;-71
2021/03/29 00:51:08;;;;;;;10.45;2.40;;;;;;;;;;4968734;28;20019;-70
2021/03/29 00:53:36;;;;;;;7.97;2.00;;;;;;;;;;4969629;28;20069;-70
2021/03/29 00:56:02;;;;;;;9.00;2.80;;;;;;;;;;4969294;28;20034;-70
2021/03/29 00:58:28;;;;;;;12.43;2.70;;;;;;;;;;4954618;28;20089;-70
2021/03/29 01:00:59;;;;;;;5.53;2.10;;;;;;;;;;4967354;28;20034;-70
2021/03/29 01:03:30;;;;;;;7.47;2.42;;;;;;;;;;4966385;28;20034;-71
2021/03/29 01:06:00;;;;;;;7.63;2.10;;;;;;;;;;4968077;28;20034;-70
2021/03/29 01:08:27;;;;;;;8.82;2.47;;;;;;;;;;4967637;28;20031;-70
2021/03/29 01:10:54;;;;;;;12.80;2.35;;;;;;;;;;4968092;28;20042;-70
2021/03/29 01:13:21;;;;;;;8.88;2.55;;;;;;;;;;4963117;28;20061;-71
2021/03/29 01:15:49;;;;;;;9.60;3.55;;;;;;;;;;4958042;28;20023;-71
2021/03/29 01:18:16;;;;;;;9.32;2.30;;;;;;;;;;4967420;28;20043;-70
2021/03/29 01:20:51;;;;;;;11.40;3.00;;;;;;;;;;4967505;28;20034;-70
2021/03/29 01:23:18;;;;;;;9.27;2.83;;;;;;;;;;4966218;28;20075;-70
2021/03/29 01:25:55;;;;;;;9.38;2.72;;;;;;;;;;4957295;28;20038;-71
2021/03/29 01:28:22;;;;;;;10.85;2.42;;;;;;;;;;4965460;28;20389;-70
2021/03/29 01:30:49;;;;;;;7.25;2.70;;;;;;;;;;4957557;28;20111;-70
2021/03/29 01:33:16;;;;;;;13.73;2.47;;;;;;;;;;5020007;28;20033;-70
2021/03/29 01:35:47;;;;;;;10.35;2.10;;;;;;;;;;4966921;28;20108;-72
2021/03/29 01:38:14;;;;;;;8.85;3.17;;;;;;;;;;4965693;28;20027;-71
2021/03/29 01:40:41;;;;;;;19.13;2.72;;;;;;;;;;4954614;28;20027;-70
2021/03/29 01:43:07;;;;;;;9.48;2.08;;;;;;;;;;4967222;28;20038;-72
2021/03/29 01:45:33;;;;;;;12.55;2.80;;;;;;;;;;4953510;28;20023;-70
2021/03/29 01:48:00;;;;;;;8.80;3.03;;;;;;;;;;4967645;28;20039;-71
2021/03/29 01:50:28;;;;;;;10.07;2.60;;;;;;;;;;4963857;28;20110;-70
2021/03/29 01:52:55;;;;;;;10.45;2.90;;;;;;;;;;4955464;28;20482;-70
2021/03/29 01:55:21;;;;;;;12.32;4.00;;;;;;;;;;4952712;28;20571;-70
2021/03/29 01:57:47;;;;;;;11.07;3.80;;;;;;;;;;4967010;28;20015;-71
2021/03/29 02:00:19;;;;;;;16.23;3.35;;;;;;;;;;4966940;28;20220;-72
2021/03/29 02:02:45;;;;;;;14.20;3.10;;;;;;;;;;4967038;28;20031;-71
2021/03/29 02:05:12;;;;;;;11.23;3.15;;;;;;;;;;4967026;28;20026;-70
2021/03/29 02:07:38;;;;;;;21.00;3.72;;;;;;;;;;4966692;28;20031;-70
2021/03/29 02:10:12;;;;;;;8.88;4.20;;;;;;;;;;4960967;28;20070;-70
2021/03/29 02:12:39;;;;;;;12.85;3.30;;;;;;;;;;4957108;28;20400;-71
2021/03/29 02:15:08;;;;;;;12.13;3.17;;;;;;;;;;4951321;28;20034;-71
2021/03/29 02:17:35;;;;;;;12.80;4.05;;;;;;;;;;4966770;28;20041;-71
2021/03/29 02:20:02;;;;;;;10.48;3.47;;;;;;;;;;4966030;28;20062;-70
2021/03/29 02:22:28;;;;;;;9.60;3.20;;;;;;;;;;4967324;28;20118;-71
2021/03/29 02:24:54;;;;;;;10.93;3.08;;;;;;;;;;4952450;28;20027;-73
2021/03/29 02:27:20;;;;;;;14.40;4.32;;;;;;;;;;4966131;28;20035;-70
2021/03/29 02:29:46;;;;;;;10.25;4.13;;;;;;;;;;4966597;28;20488;-70
2021/03/29 02:32:12;;;;;;;14.82;4.90;;;;;;;;;;4997291;28;20033;-71
2021/03/29 02:34:38;;;;;;;12.25;3.97;;;;;;;;;;4992954;28;20027;-70
2021/03/29 02:37:04;;;;;;;10.07;3.30;;;;;;;;;;4964298;28;20080;-70
2021/03/29 02:39:30;;;;;;;13.85;3.25;;;;;;;;;;4966734;28;20452;-70
2021/03/29 02:41:57;;;;;;;12.57;3.85;;;;;;;;;;4966435;28;20027;-71
2021/03/29 02:44:23;;;;;;;16.83;3.92;;;;;;;;;;4960163;28;20022;-70
2021/03/29 02:46:49;;;;;;;13.30;3.30;;;;;;;;;;4954904;28;20023;-70
2021/03/29 02:49:16;;;;;;;13.60;3.38;;;;;;;;;;4960077;28;20031;-71
2021/03/29 02:51:43;;;;;;;7.63;3.00;;;;;;;;;;4963183;28;20064;-70
2021/03/29 02:54:10;;;;;;;9.93;3.38;;;;;;;;;;4963192;28;20038;-71
2021/03/29 02:56:46;;;;;;;11.63;3.97;;;;;;;;;;4964898;28;20030;-71
2021/03/29 02:59:14;;;;;;;12.35;4.28;;;;;;;;;;4966078;28;20452;-71
2021/03/29 03:01:41;;;;;;;13.75;3.65;;;;;;;;;;4958722;28;20019;-70
2021/03/29 03:04:09;;;;;;;11.32;3.78;;;;;;;;;;4951610;28;20393;-72
2021/03/29 03:06:35;;;;;;;12.57;3.55;;;;;;;;;;4965703;28;20034;-70
2021/03/29 03:09:04;;;;;;;13.90;3.97;;;;;;;;;;4954529;28;20031;-70
2021/03/29 03:11:31;;;;;;;14.77;3.90;;;;;;;;;;4964010;28;20361;-71
2021/03/29 03:13:57;;;;;;;11.93;3.90;;;;;;;;;;4966187;28;20550;-71
2021/03/29 03:16:23;;;;;;;9.38;3.75;;;;;;;;;;4964197;28;20042;-71
2021/03/29 03:18:49;;;;;;;10.63;4.03;;;;;;;;;;4966021;28;20037;-70
2021/03/29 03:21:17;;;;;;;16.35;3.90;;;;;;;;;;4965607;28;20425;-71
2021/03/29 03:23:56;;;;;;;13.45;3.58;;;;;;;;;;4965778;28;20473;-71
2021/03/29 03:26:23;;;;;;;14.25;4.18;;;;;;;;;;4965134;28;20031;-71
2021/03/29 03:28:49;;;;;;;12.98;4.75;;;;;;;;;;4946646;28;20039;-70
2021/03/29 03:31:15;;;;;;;11.25;3.90;;;;;;;;;;4956547;28;20038;-70
2021/03/29 03:33:41;;;;;;;9.90;4.07;;;;;;;;;;4964071;28;20443;-71
2021/03/29 03:36:08;;;;;;;15.48;4.28;;;;;;;;;;4966049;28;20058;-71
2021/03/29 03:38:35;;;;;;;15.57;4.90;;;;;;;;;;4965524;28;20084;-71
2021/03/29 03:41:04;;;;;;;17.25;4.60;;;;;;;;;;4964206;28;20034;-70
2021/03/29 03:43:32;;;;;;;16.60;5.00;;;;;;;;;;4964933;28;20043;-70
2021/03/29 03:46:05;;;;;;;17.73;3.55;;;;;;;;;;4965318;28;20073;-70
2021/03/29 03:48:31;;;;;;;13.52;4.95;;;;;;;;;;4965206;28;20404;-70
2021/03/29 03:50:58;;;;;;;14.48;3.83;;;;;;;;;;4965672;28;20100;-71
2021/03/29 03:53:27;;;;;;;14.15;4.32;;;;;;;;;;4964274;28;20034;-71
2021/03/29 03:55:53;;;;;;;19.75;4.35;;;;;;;;;;4966832;28;20030;-72
2021/03/29 03:58:19;;;;;;;13.23;4.10;;;;;;;;;;4959185;28;20046;-72
2021/03/29 04:00:46;;;;;;;11.65;5.18;;;;;;;;;;4964447;28;20026;-72
2021/03/29 04:03:12;;;;;;;9.75;3.50;;;;;;;;;;4968828;28;20046;-71
2021/03/29 04:05:38;;;;;;;14.57;4.03;;;;;;;;;;4968777;28;20038;-70
2021/03/29 04:08:04;;;;;;;9.52;3.53;;;;;;;;;;4962727;28;20037;-72
2021/03/29 04:13:29;;;;;;;10.27;3.15;;;;;;;;;;4949196;28;20062;-72
2021/03/29 04:16:02;;;;;;;11.35;4.70;;;;;;;;;;4949207;28;20493;-71
2021/03/29 04:18:29;;;;;;;9.95;3.97;;;;;;;;;;4968832;28;20810;-72
2021/03/29 04:20:55;;;;;;;11.40;3.45;;;;;;;;;;4967976;28;20035;-71
2021/03/29 04:23:23;;;;;;;10.63;3.20;;;;;;;;;;4968006;28;20035;-72
2021/03/29 04:25:50;;;;;;;10.93;3.22;;;;;;;;;;4966476;28;20061;-71
2021/03/29 04:28:16;;;;;;;11.10;3.42;;;;;;;;;;4967973;28;20039;-71
2021/03/29 04:30:42;;;;;;;18.52;4.07;;;;;;;;;;4959682;28;20032;-70
2021/03/29 04:33:08;;;;;;;12.77;3.60;;;;;;;;;;4961384;28;20135;-71
2021/03/29 04:35:34;;;;;;;16.42;4.53;;;;;;;;;;4968164;28;20034;-72
2021/03/29 04:38:00;;;;;;;11.68;3.58;;;;;;;;;;4968030;28;20072;-71
2021/03/29 04:40:27;;;;;;;12.00;3.25;;;;;;;;;;4961980;28;20031;-70
2021/03/29 04:42:54;;;;;;;15.18;4.47;;;;;;;;;;4948795;28;20069;-71
2021/03/29 04:45:20;;;;;;;12.48;3.35;;;;;;;;;;4950330;28;20035;-72
2021/03/29 04:47:46;;;;;;;10.38;3.72;;;;;;;;;;4967953;28;20085;-71
2021/03/29 04:50:13;;;;;;;15.73;4.10;;;;;;;;;;4966252;28;20081;-71
2021/03/29 04:52:39;;;;;;;11.82;4.50;;;;;;;;;;4967132;28;20850;-71
2021/03/29 04:55:06;;;;;;;10.80;3.22;;;;;;;;;;4968063;28;20109;-71
2021/03/29 04:57:32;;;;;;;15.30;4.28;;;;;;;;;;4953513;28;20030;-71
2021/03/29 04:59:58;;;;;;;12.55;3.42;;;;;;;;;;4966551;28;20119;-71
2021/03/29 05:02:24;;;;;;;13.18;4.43;;;;;;;;;;4966703;28;20117;-71
2021/03/29 05:04:50;;;;;;;15.05;3.97;;;;;;;;;;4955643;28;20030;-71
2021/03/29 05:07:16;;;;;;;11.85;4.05;;;;;;;;;;4954515;28;20043;-71
2021/03/29 05:09:42;;;;;;;10.02;3.47;;;;;;;;;;4966913;28;20041;-71
2021/03/29 05:12:09;;;;;;;14.20;3.97;;;;;;;;;;4967783;28;20435;-72
2021/03/29 05:14:35;;;;;;;12.45;4.72;;;;;;;;;;4967505;28;20023;-71
2021/03/29 05:17:01;;;;;;;16.33;4.30;;;;;;;;;;4966027;28;20107;-71
2021/03/29 05:19:27;;;;;;;13.15;4.05;;;;;;;;;;5024696;28;20470;-71
2021/03/29 05:21:53;;;;;;;13.90;3.45;;;;;;;;;;4958384;28;20027;-71
2021/03/29 05:24:19;;;;;;;9.50;3.45;;;;;;;;;;4961446;28;20066;-72
2021/03/29 05:26:45;;;;;;;13.38;3.80;;;;;;;;;;4966750;28;20031;-71
2021/03/29 05:29:11;;;;;;;17.63;3.63;;;;;;;;;;4956001;28;20042;-72
2021/03/29 05:31:40;;;;;;;14.57;4.25;;;;;;;;;;4963920;28;20038;-72
2021/03/29 05:34:07;;;;;;;19.08;4.60;;;;;;;;;;4967754;28;20035;-71
2021/03/29 05:36:33;;;;;;;13.75;4.25;;;;;;;;;;4966629;28;20071;-71
2021/03/29 05:38:59;;;;;;;15.70;3.60;;;;;;;;;;4967592;28;20356;-71
2021/03/29 05:41:25;;;;;;;9.98;3.78;;;;;;;;;;4953080;28;20490;-71
2021/03/29 05:43:51;;;;;;;16.52;4.32;;;;;;;;;;4967671;28;20054;-71
2021/03/29 05:46:17;;;;;;;13.07;4.55;;;;;;;;;;4967195;28;20030;-71
2021/03/29 05:48:43;;;;;;;12.02;4.45;;;;;;;;;;4966802;28;20399;-71
2021/03/29 05:51:09;;;;;;;12.05;3.83;;;;;;;;;;4971703;28;20536;-71
2021/03/29 05:53:36;;;;;;;7.68;3.55;;;;;;;;;;4970114;28;20491;-71
2021/03/29 05:56:03;;;;;;;17.88;4.00;;;;;;;;;;4960862;28;20035;-71
2021/03/29 06:00:55;;;;;;;12.70;3.70;;;;;;;;;;4971803;28;20034;-71
2021/03/29 06:03:22;;;;;;;17.02;4.38;;;;;;;;;;4958147;28;20078;-71
2021/03/29 06:05:49;;;;;;;12.85;3.78;;;;;;;;;;4948347;28;20035;-71
2021/03/29 06:08:15;;;;;;;13.27;4.88;;;;;;;;;;4966873;28;20031;-71
2021/03/29 06:10:42;;;;;;;14.75;4.88;;;;;;;;;;4967274;28;20027;-71
2021/03/29 06:13:16;;;;;;;18.00;3.92;;;;;;;;;;4959530;28;20046;-71
2021/03/29 06:15:42;;;;;;;16.10;3.45;;;;;;;;;;4959681;28;20027;-71
2021/03/29 06:18:15;;;;;;;10.90;3.60;;;;;;;;;;4964827;28;20515;-71
2021/03/29 06:20:59;;;;;;;11.60;3.63;;;;;;;;;;4954401;28;20027;-72
2021/03/29 06:23:25;;;;;;;15.15;3.72;;;;;;;;;;4952240;28;20381;-72
2021/03/29 06:25:51;;;;;;;18.20;5.35;;;;;;;;;;4963514;28;20438;-71
2021/03/29 06:28:27;;;;;;;16.67;4.13;;;;;;;;;;4969592;28;20026;-72
2021/03/29 06:30:53;;;;;;;17.23;4.55;;;;;;;;;;4967114;28;20151;-72
2021/03/29 06:33:19;;;;;;;15.40;3.95;;;;;;;;;;4966335;28;20026;-72
2021/03/29 06:35:45;;;;;;;12.45;2.95;;;;;;;;;;4965718;28;20439;-72
2021/03/29 06:38:11;;;;;;;13.68;3.20;;;;;;;;;;4966031;28;20308;-71
2021/03/29 06:40:39;;;;;;;13.68;3.42;;;;;;;;;;4966177;28;20499;-72
2021/03/29 06:43:18;;;;;;;13.02;3.22;;;;;;;;;;4966138;28;20026;-72
2021/03/29 06:45:44;;;;;;;18.23;3.35;;;;;;;;;;4965500;28;20455;-71
2021/03/29 06:48:19;;;;;;;20.20;4.30;;;;;;;;;;4965403;28;20396;-72
2021/03/29 06:50:45;;;;;;;9.00;3.17;;;;;;;;;;4964918;28;20031;-71
2021/03/29 06:53:11;;;;;;;14.68;3.35;;;;;;;;;;4965797;28;20472;-72
2021/03/29 06:55:37;;;;;;;11.40;3.53;;;;;;;;;;4964442;28;20031;-72
2021/03/29 06:58:04;;;;;;;12.23;3.35;;;;;;;;;;4965378;28;20097;-71
2021/03/29 07:00:32;;;;;;;16.77;3.45;;;;;;;;;;4964128;28;20043;-72
2021/03/29 07:02:59;;;;;;;15.40;4.53;;;;;;;;;;4967381;28;20023;-72
2021/03/29 07:05:25;;;;;;;14.85;3.10;;;;;;;;;;4970129;28;20027;-71
2021/03/29 07:07:52;;;;;;;10.38;2.75;;;;;;;;;;4965381;28;20080;-72
2021/03/29 07:10:18;;;;;;;11.65;3.33;;;;;;;;;;4965218;28;20034;-71
2021/03/29 07:12:45;;;;;;;11.65;3.15;;;;;;;;;;4962295;28;20077;-72
2021/03/29 07:15:12;;;;;;;11.95;2.88;;;;;;;;;;4961728;28;20122;-72
2021/03/29 07:17:39;;;;;;;11.77;3.72;;;;;;;;;;4963912;28;20027;-72
2021/03/29 07:20:09;;;;;;;12.25;3.13;;;;;;;;;;4963530;28;20412;-71
2021/03/29 07:22:39;;;;;;;16.05;4.22;;;;;;;;;;4962798;28;20071;-72
2021/03/29 07:25:10;;;;;;;13.63;3.70;;;;;;;;;;4964177;28;20492;-72
2021/03/29 07:27:38;;;;;;;16.95;4.00;;;;;;;;;;4965247;28;20495;-72
2021/03/29 07:30:05;;;;;;;14.57;3.60;;;;;;;;;;4953818;28;20430;-72
2021/03/29 07:32:33;;;;;;;13.45;3.38;;;;;;;;;;4968397;28;20197;-72
2021/03/29 07:34:59;;;;;;;9.88;3.05;;;;;;;;;;4967819;28;20033;-72
2021/03/29 07:37:28;;;;;;;12.80;3.67;;;;;;;;;;4969580;28;20038;-71
2021/03/29 07:39:54;;;;;;;12.67;2.90;;;;;;;;;;4973308;28;20034;-72
2021/03/29 07:42:20;;;;;;;15.55;3.38;;;;;;;;;;4965104;28;20504;-72
2021/03/29 07:44:56;;;;;;;11.75;2.80;;;;;;;;;;4967491;28;20019;-72
2021/03/29 07:47:41;;;;;;;10.20;2.80;;;;;;;;;;4965170;28;20109;-72
2021/03/29 07:50:08;;;;;;;14.43;4.05;;;;;;;;;;4963071;28;20037;-72
2021/03/29 07:52:35;;;;;;;10.48;3.20;;;;;;;;;;4967837;28;20030;-72
2021/03/29 07:55:03;;;;;;;10.07;3.38;;;;;;;;;;4967743;28;20023;-71
2021/03/29 07:57:44;;;;;;;9.63;3.40;;;;;;;;;;4966818;28;20400;-71
2021/03/29 08:00:25;;;;;;;11.73;3.00;;;;;;;;;;4966426;28;20110;-71
2021/03/29 08:02:52;;;;;;;8.93;2.80;;;;;;;;;;4966086;28;20107;-70
2021/03/29 08:05:37;;;;;;;12.10;3.45;;;;;;;;;;4969211;28;20538;-71
2021/03/29 08:08:04;;;;;;;10.98;3.08;;;;;;;;;;4965845;28;20027;-71
2021/03/29 08:10:53;;;;;;;13.48;3.30;;;;;;;;;;4967522;28;20503;-71
2021/03/29 08:13:35;;;;;;;15.82;3.33;;;;;;;;;;4962306;28;20046;-71
2021/03/29 08:16:11;;;;;;;13.27;3.38;;;;;;;;;;4966774;28;20739;-69
2021/03/29 08:18:56;;;;;;;13.55;3.22;;;;;;;;;;4965450;28;20043;-70
2021/03/29 08:21:45;;;;;;;11.90;3.22;;;;;;;;;;4966489;28;20050;-69
2021/03/29 08:24:26;;;;;;;12.80;3.40;;;;;;;;;;4930196;28;20431;-68
2021/03/29 08:27:12;;;;;;;8.50;3.00;;;;;;;;;;4966639;28;20857;-69
2021/03/29 08:29:41;;;;;;;13.82;3.90;;;;;;;;;;4958799;28;20149;-69
2021/03/29 08:32:09;;;;;;;11.85;2.90;;;;;;;;;;4967365;28;20019;-68
2021/03/29 08:34:37;;;;;;;16.20;3.30;;;;;;;;;;4967072;28;20022;-69
2021/03/29 08:37:07;;;;;;;10.48;2.80;;;;;;;;;;4964829;28;20054;-68
2021/03/29 08:39:34;;;;;;;13.68;2.72;;;;;;;;;;4965498;28;20034;-69
2021/03/29 08:42:01;;;;;;;12.90;3.05;;;;;;;;;;4966884;28;20104;-69
2021/03/29 08:44:28;;;;;;;13.73;2.92;;;;;;;;;;4965070;28;20030;-69
2021/03/29 08:46:54;;;;;;;10.50;3.28;;;;;;;;;;4967238;28;20038;-69
2021/03/29 08:49:21;;;;;;;10.82;2.90;;;;;;;;;;4967874;28;20027;-69
2021/03/29 08:51:47;;;;;;;9.93;2.75;;;;;;;;;;4967845;28;20038;-69
2021/03/29 08:54:14;;;;;;;9.07;2.45;;;;;;;;;;4967810;28;20027;-69
2021/03/29 08:56:40;;;;;;;14.13;3.55;;;;;;;;;;4967366;28;20103;-67
2021/03/29 08:59:07;;;;;;;9.40;2.80;;;;;;;;;;4967424;28;20488;-68
2021/03/29 09:01:33;;;;;;;8.98;2.72;;;;;;;;;;4966405;28;20023;-68
2021/03/29 09:04:02;;;;;;;15.32;3.72;;;;;;;;;;4966641;28;20038;-68
2021/03/29 09:06:32;;;;;;;12.30;2.75;;;;;;;;;;4966999;28;20031;-68
2021/03/29 09:09:11;;;;;;;14.48;2.78;;;;;;;;;;4964743;28;20034;-68
2021/03/29 09:11:44;;;;;;;11.85;3.75;;;;;;;;;;4966279;28;20100;-68
2021/03/29 09:14:10;;;;;;;11.85;3.03;;;;;;;;;;4966541;28;20035;-68
2021/03/29 09:16:40;;;;;;;13.82;3.55;;;;;;;;;;4964695;28;20492;-68
2021/03/29 09:19:11;;;;;;;9.75;3.00;;;;;;;;;;4966574;28;20034;-68
2021/03/29 09:21:39;;;;;;;15.35;3.33;;;;;;;;;;4965148;28;20037;-68
2021/03/29 09:24:15;;;;;;;13.63;4.32;;;;;;;;;;4965840;28;20027;-68
2021/03/29 09:26:41;;;;;;;11.73;3.30;;;;;;;;;;4966414;28;20129;-68
2021/03/29 09:29:19;;;;;;;15.75;2.97;;;;;;;;;;4963507;28;20114;-68
2021/03/29 09:31:45;;;;;;;14.40;3.00;;;;;;;;;;4962427;28;20046;-68
2021/03/29 09:34:13;;;;;;;11.40;3.20;;;;;;;;;;4965688;28;20034;-68
2021/03/29 09:36:39;;;;;;;8.27;2.38;;;;;;;;;;4962133;28;20031;-68
2021/03/29 09:39:13;;;;;;;12.90;3.30;;;;;;;;;;4960737;28;20159;-68
2021/03/29 09:41:48;;;;;;;10.27;2.40;;;;;;;;;;4961590;28;20030;-68
2021/03/29 09:44:14;;;;;;;10.40;2.95;;;;;;;;;;4966285;28;20026;-68
2021/03/29 09:46:40;;;;;;;9.55;2.53;;;;;;;;;;4963757;28;20030;-68
2021/03/29 09:49:09;;;;;;;14.90;3.08;;;;;;;;;;4972296;28;20661;-68
2021/03/29 09:51:36;;;;;;;9.93;2.80;;;;;;;;;;5068029;28;20474;-68
2021/03/29 09:54:19;;;;;;;15.77;3.47;;;;;;;;;;5065509;28;20094;-68
2021/03/29 09:56:45;;;;;;;16.90;4.15;;;;;;;;;;5065452;28;20474;-68
2021/03/29 09:59:11;;;;;;;11.48;3.03;;;;;;;;;;5067104;28;20039;-68
2021/03/29 10:01:43;;;;;;;15.32;2.97;;;;;;;;;;5066699;28;20032;-68
2021/03/29 10:04:13;;;;;;;10.55;2.47;;;;;;;;;;5066984;28;20046;-68
2021/03/29 10:06:49;;;;;;;13.10;2.55;;;;;;;;;;5063527;28;20067;-69
2021/03/29 10:09:15;;;;;;;9.95;2.35;;;;;;;;;;5067480;28;20035;-67
2021/03/29 10:11:44;;;;;;;12.65;2.60;;;;;;;;;;5061054;28;20024;-69
2021/03/29 10:14:10;;;;;;;13.00;2.78;;;;;;;;;;5067200;28;20064;-69
2021/03/29 10:16:49;;;;;;;9.10;2.50;;;;;;;;;;5067329;28;20033;-68
2021/03/29 10:19:19;;;;;;;11.73;3.95;;;;;;;;;;5066234;28;20025;-69
2021/03/29 10:22:03;;;;;;;9.88;2.45;;;;;;;;;;5054508;28;20020;-69
2021/03/29 10:24:49;;;;;;;14.00;2.97;;;;;;;;;;5061791;28;20016;-69
2021/03/29 10:27:15;;;;;;;9.32;3.40;;;;;;;;;;5066009;28;20024;-70
2021/03/29 10:29:42;;;;;;;8.75;3.25;;;;;;;;;;5065291;28;20052;-70
2021/03/29 10:32:08;;;;;;;11.68;2.95;;;;;;;;;;5063369;28;20024;-69
2021/03/29 10:34:37;;;;;;;9.98;2.88;;;;;;;;;;5064652;28;20028;-69
2021/03/29 10:37:03;;;;;;;12.88;3.28;;;;;;;;;;5066612;28;20359;-69
2021/03/29 10:39:29;;;;;;;11.30;2.60;;;;;;;;;;5067349;28;20036;-70
2021/03/29 10:41:55;;;;;;;11.43;3.00;;;;;;;;;;5066564;28;20367;-70
2021/03/29 10:44:21;;;;;;;10.30;2.85;;;;;;;;;;5066163;28;20498;-69
2021/03/29 10:46:47;;;;;;;12.00;2.50;;;;;;;;;;5065233;28;20035;-70
2021/03/29 10:49:13;;;;;;;10.80;4.00;;;;;;;;;;5065913;28;20506;-69
2021/03/29 10:51:39;;;;;;;11.15;3.35;;;;;;;;;;5065727;28;20028;-69
2021/03/29 10:54:05;;;;;;;14.68;3.95;;;;;;;;;;5061306;28;20532;-69
2021/03/29 10:56:31;;;;;;;10.50;3.05;;;;;;;;;;5066344;28;20027;-69
2021/03/29 10:58:57;;;;;;;13.73;3.70;;;;;;;;;;5066149;28;20020;-69
2021/03/29 11:01:23;;;;;;;13.82;3.00;;;;;;;;;;5066237;28;20081;-69
2021/03/29 11:03:49;;;;;;;11.65;3.60;;;;;;;;;;5066841;28;20024;-69
2021/03/29 11:06:15;;;;;;;10.40;2.47;;;;;;;;;;5065554;28;20060;-70
2021/03/29 11:08:41;;;;;;;15.77;4.13;;;;;;;;;;5064881;28;20105;-69
2021/03/29 11:11:07;;;;;;;11.00;3.80;;;;;;;;;;5067364;28;20588;-69
2021/03/29 11:13:33;;;;;;;11.30;3.25;;;;;;;;;;5065513;28;20037;-69
2021/03/29 11:16:00;;;;;;;13.20;3.08;;;;;;;;;;5065173;28;20069;-69
2021/03/29 11:18:26;;;;;;;13.30;3.47;;;;;;;;;;5064934;28;20033;-69
2021/03/29 11:20:55;;;;;;;14.30;3.67;;;;;;;;;;5065790;28;20188;-69
2021/03/29 11:23:25;;;;;;;13.95;3.83;;;;;;;;;;5065147;28;20360;-69
2021/03/29 11:25:51;;;;;;;11.65;3.40;;;;;;;;;;5062304;28;20465;-69
2021/03/29 11:28:16;;;;;;;9.23;3.17;;;;;;;;;;5064415;28;20149;-69
2021/03/29 11:30:42;;;;;;;16.05;3.90;;;;;;;;;;5066616;28;20027;-69
2021/03/29 11:33:08;;;;;;;14.85;4.20;;;;;;;;;;5064137;28;20401;-69
2021/03/29 11:35:34;;;;;;;11.93;4.38;;;;;;;;;;5065317;28;20133;-69
2021/03/29 11:38:00;;;;;;;11.70;4.13;;;;;;;;;;5065037;28;20031;-69
2021/03/29 11:40:26;;;;;;;14.85;4.63;;;;;;;;;;5060819;28;20190;-69
2021/03/29 11:42:52;;;;;;;12.18;3.83;;;;;;;;;;5062067;28;20392;-69
2021/03/29 11:45:18;;;;;;;10.68;3.58;;;;;;;;;;5065671;28;20459;-69
2021/03/29 11:47:44;;;;;;;16.63;4.10;;;;;;;;;;5064723;28;20099;-68
2021/03/29 11:50:13;;;;;;;14.82;4.00;;;;;;;;;;5055270;28;20041;-68
2021/03/29 11:52:40;;;;;;;13.45;4.20;;;;;;;;;;5064454;28;20032;-68
2021/03/29 11:55:06;;;;;;;9.02;3.60;;;;;;;;;;5065598;28;20028;-69
2021/03/29 11:57:32;;;;;;;18.13;4.75;;;;;;;;;;5065037;28;20036;-71
2021/03/29 11:59:59;;;;;;;11.63;3.90;;;;;;;;;;5066603;28;20021;-71
2021/03/29 12:02:34;;;;;;;13.02;4.22;;;;;;;;;;5062510;28;20025;-71
2021/03/29 12:05:12;;;;;;;11.48;3.10;;;;;;;;;;5049287;28;20050;-71
2021/03/29 12:07:47;;;;;;;20.15;4.25;;;;;;;;;;5062619;28;20465;-69
2021/03/29 12:13:00;;;;;;;10.88;3.40;;;;;;;;;;5065723;28;20544;-71
2021/03/29 12:15:26;;;;;;;12.18;3.75;;;;;;;;;;5066262;28;20054;-70
2021/03/29 12:17:52;;;;;;;13.10;3.28;;;;;;;;;;5063903;28;20067;-70
2021/03/29 12:20:18;;;;;;;10.40;3.40;;;;;;;;;;5060447;28;20053;-69
2021/03/29 12:22:46;;;;;;;9.77;3.55;;;;;;;;;;5057685;28;20103;-69
2021/03/29 12:25:13;;;;;;;8.15;2.42;;;;;;;;;;5068742;28;20025;-69
2021/03/29 12:27:40;;;;;;;9.85;2.90;;;;;;;;;;5068219;28;20059;-70
2021/03/29 12:30:12;;;;;;;11.73;3.63;;;;;;;;;;5067706;28;20262;-70
2021/03/29 12:32:38;;;;;;;7.15;2.25;;;;;;;;;;5068816;28;20024;-69
2021/03/29 12:35:05;;;;;;;14.52;3.33;;;;;;;;;;5069346;28;20077;-69
2021/03/29 12:37:32;;;;;;;9.40;2.70;;;;;;;;;;5069295;28;20112;-70
2021/03/29 12:42:26;;;;;;;12.50;3.47;;;;;;;;;;5060959;28;20120;-69
2021/03/29 12:44:54;;;;;;;9.75;3.42;;;;;;;;;;5067909;28;20045;-69
2021/03/29 12:47:23;;;;;;;8.98;2.40;;;;;;;;;;5069222;28;20055;-70
2021/03/29 12:49:50;;;;;;;;;;;;;;;;;;5069744;28;20127;-70
2021/03/29 12:52:16;;;;;;;7.07;2.30;;;;;;;;;;5068802;28;19919;-70
2021/03/29 12:54:44;;;;;;;8.05;2.55;;;;;;;;;;5067663;28;20476;-70
2021/03/29 12:57:10;;;;;;;9.98;2.45;;;;;;;;;;5068647;28;20020;-70
2021/03/29 12:59:36;;;;;;;6.75;2.17;;;;;;;;;;5066428;28;20101;-73
2021/03/29 13:02:03;;;;;;;15.45;2.60;;;;;;;;;;5065800;28;20059;-69
2021/03/29 13:09:57;;;;;;;8.82;2.47;;;;;;;;;;5067158;28;20094;-69
2021/03/29 13:12:23;;;;;;;11.88;2.42;;;;;;;;;;5067365;28;20462;-70
2021/03/29 13:15:02;;;;;;;4.43;1.83;;;;;;;;;;5065268;28;20109;-70
2021/03/29 13:17:29;;;;;;;7.65;2.30;;;;;;;;;;5067114;28;20025;-70
2021/03/29 13:19:56;;;;;;;6.72;2.28;;;;;;;;;;5069595;28;20466;-70
2021/03/29 13:22:22;;;;;;;7.35;1.83;;;;;;;;;;5068646;28;20066;-70
2021/03/29 13:24:48;;;;;;;11.35;2.75;;;;;;;;;;5067074;28;20033;-70
2021/03/29 13:27:15;;;;;;;6.45;2.28;;;;;;;;;;5065302;28;20582;-70
2021/03/29 13:29:43;;;;;;;7.55;2.50;;;;;;;;;;5068599;28;20390;-70
2021/03/29 13:32:09;;;;;;;8.73;2.35;;;;;;;;;;5068128;28;20108;-70
2021/03/29 13:34:35;;;;;;;9.65;2.38;;;;;;;;;;5067374;28;20382;-69
2021/03/29 13:37:02;;;;;;;5.97;2.28;;;;;;;;;;5066182;28;20463;-69
2021/03/29 13:39:29;;;;;;;7.55;2.38;;;;;;;;;;5067988;28;20021;-70
2021/03/29 13:41:55;;;;;;;7.22;2.33;;;;;;;;;;5067508;28;20611;-69
2021/03/29 13:44:22;;;;;;;5.75;1.98;;;;;;;;;;5068276;28;20090;-69
2021/03/29 13:46:48;;;;;;;7.32;2.60;;;;;;;;;;5063417;28;20421;-69
2021/03/29 13:49:14;;;;;;;7.18;2.78;;;;;;;;;;5067058;28;20036;-70
2021/03/29 13:51:43;;;;;;;6.57;2.40;;;;;;;;;;5065911;28;20024;-69
2021/03/29 13:54:11;;;;;;;13.73;3.13;;;;;;;;;;5067278;28;20488;-70
2021/03/29 13:56:40;;;;;;;8.07;3.03;;;;;;;;;;5065276;28;20039;-69
2021/03/29 13:59:07;;;;;;;9.73;2.85;;;;;;;;;;5067746;28;20028;-69
2021/03/29 14:01:33;;;;;;;5.80;2.53;;;;;;;;;;5067470;28;20047;-69
2021/03/29 14:04:00;;;;;;;7.93;2.95;;;;;;;;;;5067195;28;20028;-69
2021/03/29 14:06:28;;;;;;;9.38;2.78;;;;;;;;;;5063323;28;20044;-70
2021/03/29 14:08:54;;;;;;;6.00;2.70;;;;;;;;;;5059735;28;20032;-70
2021/03/29 14:11:20;;;;;;;8.00;2.53;;;;;;;;;;5053308;28;20108;-69
2021/03/29 14:13:46;;;;;;;10.15;2.92;;;;;;;;;;5068409;28;20119;-70
2021/03/29 14:16:12;;;;;;;7.18;2.08;;;;;;;;;;5067258;28;20021;-70
2021/03/29 14:18:38;;;;;;;7.88;2.47;;;;;;;;;;5066326;28;20101;-70
2021/03/29 14:21:24;;;;;;;9.85;2.38;;;;;;;;;;5064757;28;20033;-69
2021/03/29 14:23:50;;;;;;;7.90;2.08;;;;;;;;;;5055333;28;20414;-71
2021/03/29 14:26:16;;;;;;;13.13;2.80;;;;;;;;;;5061215;28;20106;-69
2021/03/29 14:28:42;;;;;;;7.07;2.35;;;;;;;;;;5066697;28;20367;-70
2021/03/29 14:31:09;;;;;;;8.63;2.88;;;;;;;;;;5070177;28;20029;-69
2021/03/29 14:33:36;;;;;;;7.47;2.45;;;;;;;;;;5063442;28;20024;-71
2021/03/29 14:44:08;;;;;;;8.48;2.45;;;;;;;;;;5069636;28;20505;-71
2021/03/29 14:46:34;;;;;;;5.60;2.13;;;;;;;;;;5067377;28;20021;-70
2021/03/29 14:49:00;;;;;;;7.45;2.30;;;;;;;;;;5066559;28;20059;-71
2021/03/29 14:51:27;;;;;;;7.47;2.35;;;;;;;;;;5065433;28;20028;-71
2021/03/29 14:53:53;;;;;;;10.23;3.67;;;;;;;;;;5066109;28;20470;-71
2021/03/29 14:56:19;;;;;;;5.53;2.20;;;;;;;;;;5066194;28;20036;-70
2021/03/29 14:58:45;;;;;;;5.75;2.03;;;;;;;;;;5066794;28;20019;-72
2021/03/29 15:01:12;;;;;;;7.10;2.33;;;;;;;;;;5066572;28;20029;-71
2021/03/29 15:03:38;;;;;;;7.03;2.55;;;;;;;;;;5066389;28;20020;-71